sensor_id;sensor_type;location;lat;lon;timestamp;P1;durP1;ratioP1;P2;durP2;ratioP2
44116;SDS011;29781;49.480;8.512;2022-08-21T00:00:42;5.72;;;3.80;;
44116;SDS011;29781;49.480;8.512;2022-08-21T00:03:08;8.77;;;4.35;;
44116;SDS011;29781;49.480;8.512;2022-08-21T00:05:37;5.55;;;4.03;;
44116;SDS011;29781;49.480;8.512;2022-08-21T00:08:04;7.10;;;4.72;;
44116;SDS011;29781;49.480;8.512;2022-08-21T00:10:30;9.32;;;5.13;;
44116;SDS011;29781;49.480;8.512;2022-08-21T00:12:56;8.00;;;5.00;;
44116;SDS011;29781;49.480;8.512;2022-08-21T00:15:23;11.02;;;4.70;;
44116;SDS011;29781;49.480;8.512;2022-08-21T00:17:52;8.15;;;4.60;;
44116;SDS011;29781;49.480;8.512;2022-08-21T00:20:19;8.85;;;5.00;;
44116;SDS011;29781;49.480;8.512;2022-08-21T00:22:46;9.38;;;4.82;;
44116;SDS011;29781;49.480;8.512;2022-08-21T00:25:13;9.05;;;4.32;;
44116;SDS011;29781;49.480;8.512;2022-08-21T00:27:40;5.32;;;4.30;;
44116;SDS011;29781;49.480;8.512;2022-08-21T00:30:12;8.63;;;4.25;;
44116;SDS011;29781;49.480;8.512;2022-08-21T00:32:39;9.55;;;4.30;;
44116;SDS011;29781;49.480;8.512;2022-08-21T00:35:06;10.52;;;5.07;;
44116;SDS011;29781;49.480;8.512;2022-08-21T00:37:36;7.78;;;4.22;;
44116;SDS011;29781;49.480;8.512;2022-08-21T00:40:03;8.02;;;4.57;;
44116;SDS011;29781;49.480;8.512;2022-08-21T00:42:29;5.78;;;4.50;;
44116;SDS011;29781;49.480;8.512;2022-08-21T00:44:55;8.00;;;4.05;;
44116;SDS011;29781;49.480;8.512;2022-08-21T00:47:21;8.23;;;4.68;;
44116;SDS011;29781;49.480;8.512;2022-08-21T00:49:47;8.68;;;4.82;;
44116;SDS011;29781;49.480;8.512;2022-08-21T00:52:24;6.75;;;4.57;;
44116;SDS011;29781;49.480;8.512;2022-08-21T00:54:56;6.15;;;4.40;;
44116;SDS011;29781;49.480;8.512;2022-08-21T00:57:26;6.82;;;4.43;;
44116;SDS011;29781;49.480;8.512;2022-08-21T01:00:15;7.38;;;3.83;;
44116;SDS011;29781;49.480;8.512;2022-08-21T01:02:43;5.33;;;4.13;;
44116;SDS011;29781;49.480;8.512;2022-08-21T01:05:10;6.95;;;4.28;;
44116;SDS011;29781;49.480;8.512;2022-08-21T01:07:37;6.50;;;4.43;;
44116;SDS011;29781;49.480;8.512;2022-08-21T01:10:04;9.93;;;4.30;;
44116;SDS011;29781;49.480;8.512;2022-08-21T01:12:31;5.57;;;4.03;;
44116;SDS011;29781;49.480;8.512;2022-08-21T01:14:58;10.55;;;4.28;;
44116;SDS011;29781;49.480;8.512;2022-08-21T01:17:24;5.95;;;4.10;;
44116;SDS011;29781;49.480;8.512;2022-08-21T01:19:51;8.57;;;4.53;;
44116;SDS011;29781;49.480;8.512;2022-08-21T01:22:17;8.95;;;4.40;;
44116;SDS011;29781;49.480;8.512;2022-08-21T01:24:44;6.65;;;4.45;;
44116;SDS011;29781;49.480;8.512;2022-08-21T01:27:10;7.72;;;4.10;;
44116;SDS011;29781;49.480;8.512;2022-08-21T01:29:38;6.70;;;4.57;;
44116;SDS011;29781;49.480;8.512;2022-08-21T01:32:09;6.63;;;4.10;;
44116;SDS011;29781;49.480;8.512;2022-08-21T01:34:39;7.10;;;4.65;;
44116;SDS011;29781;49.480;8.512;2022-08-21T01:37:06;7.18;;;4.13;;
44116;SDS011;29781;49.480;8.512;2022-08-21T01:39:32;6.03;;;4.32;;
44116;SDS011;29781;49.480;8.512;2022-08-21T01:41:58;7.25;;;4.15;;
44116;SDS011;29781;49.480;8.512;2022-08-21T01:44:24;8.93;;;4.68;;
44116;SDS011;29781;49.480;8.512;2022-08-21T01:46:50;6.75;;;4.43;;
44116;SDS011;29781;49.480;8.512;2022-08-21T01:49:16;9.65;;;4.50;;
44116;SDS011;29781;49.480;8.512;2022-08-21T01:51:42;10.38;;;4.90;;
44116;SDS011;29781;49.480;8.512;2022-08-21T01:54:08;7.85;;;4.63;;
44116;SDS011;29781;49.480;8.512;2022-08-21T01:56:38;9.45;;;4.53;;
44116;SDS011;29781;49.480;8.512;2022-08-21T01:59:06;11.35;;;5.03;;
44116;SDS011;29781;49.480;8.512;2022-08-21T02:01:32;5.72;;;4.93;;
44116;SDS011;29781;49.480;8.512;2022-08-21T02:03:57;8.20;;;5.00;;
44116;SDS011;29781;49.480;8.512;2022-08-21T02:06:24;8.23;;;4.65;;
44116;SDS011;29781;49.480;8.512;2022-08-21T02:08:51;8.13;;;5.30;;
44116;SDS011;29781;49.480;8.512;2022-08-21T02:11:17;7.15;;;5.15;;
44116;SDS011;29781;49.480;8.512;2022-08-21T02:13:43;12.90;;;5.40;;
44116;SDS011;29781;49.480;8.512;2022-08-21T02:16:11;8.75;;;5.55;;
44116;SDS011;29781;49.480;8.512;2022-08-21T02:18:37;10.20;;;5.18;;
44116;SDS011;29781;49.480;8.512;2022-08-21T02:21:03;6.22;;;4.70;;
44116;SDS011;29781;49.480;8.512;2022-08-21T02:23:30;5.45;;;4.80;;
44116;SDS011;29781;49.480;8.512;2022-08-21T02:26:00;9.90;;;4.63;;
44116;SDS011;29781;49.480;8.512;2022-08-21T02:28:27;9.90;;;4.68;;
44116;SDS011;29781;49.480;8.512;2022-08-21T02:30:54;8.98;;;4.75;;
44116;SDS011;29781;49.480;8.512;2022-08-21T02:33:21;8.57;;;5.53;;
44116;SDS011;29781;49.480;8.512;2022-08-21T02:35:47;7.10;;;5.22;;
44116;SDS011;29781;49.480;8.512;2022-08-21T02:38:16;9.02;;;5.30;;
44116;SDS011;29781;49.480;8.512;2022-08-21T02:40:46;8.68;;;5.10;;
44116;SDS011;29781;49.480;8.512;2022-08-21T02:43:13;8.85;;;4.82;;
44116;SDS011;29781;49.480;8.512;2022-08-21T02:45:40;10.25;;;4.82;;
44116;SDS011;29781;49.480;8.512;2022-08-21T02:48:08;8.25;;;4.60;;
44116;SDS011;29781;49.480;8.512;2022-08-21T02:50:36;9.88;;;4.60;;
44116;SDS011;29781;49.480;8.512;2022-08-21T02:53:04;8.18;;;4.50;;
44116;SDS011;29781;49.480;8.512;2022-08-21T02:55:31;7.93;;;4.65;;
44116;SDS011;29781;49.480;8.512;2022-08-21T02:57:58;14.20;;;4.70;;
44116;SDS011;29781;49.480;8.512;2022-08-21T03:00:25;7.70;;;4.45;;
44116;SDS011;29781;49.480;8.512;2022-08-21T03:02:52;8.82;;;4.68;;
44116;SDS011;29781;49.480;8.512;2022-08-21T03:05:20;8.60;;;4.55;;
44116;SDS011;29781;49.480;8.512;2022-08-21T03:07:46;9.15;;;4.32;;
44116;SDS011;29781;49.480;8.512;2022-08-21T03:10:13;6.43;;;3.90;;
44116;SDS011;29781;49.480;8.512;2022-08-21T03:12:39;8.35;;;4.25;;
44116;SDS011;29781;49.480;8.512;2022-08-21T03:15:09;9.25;;;4.20;;
44116;SDS011;29781;49.480;8.512;2022-08-21T03:17:36;8.52;;;3.95;;
44116;SDS011;29781;49.480;8.512;2022-08-21T03:20:03;11.48;;;4.25;;
44116;SDS011;29781;49.480;8.512;2022-08-21T03:22:30;8.35;;;4.30;;
44116;SDS011;29781;49.480;8.512;2022-08-21T03:24:57;6.75;;;3.90;;
44116;SDS011;29781;49.480;8.512;2022-08-21T03:27:23;8.60;;;4.50;;
44116;SDS011;29781;49.480;8.512;2022-08-21T03:29:49;10.82;;;4.35;;
44116;SDS011;29781;49.480;8.512;2022-08-21T03:32:15;11.38;;;4.80;;
44116;SDS011;29781;49.480;8.512;2022-08-21T03:34:40;6.22;;;4.45;;
44116;SDS011;29781;49.480;8.512;2022-08-21T03:37:07;9.27;;;4.72;;
44116;SDS011;29781;49.480;8.512;2022-08-21T03:39:33;10.02;;;4.82;;
44116;SDS011;29781;49.480;8.512;2022-08-21T03:41:59;7.18;;;4.40;;
44116;SDS011;29781;49.480;8.512;2022-08-21T03:44:25;8.88;;;4.57;;
44116;SDS011;29781;49.480;8.512;2022-08-21T03:46:55;9.35;;;4.50;;
44116;SDS011;29781;49.480;8.512;2022-08-21T03:49:22;10.48;;;4.97;;
44116;SDS011;29781;49.480;8.512;2022-08-21T03:51:48;10.43;;;4.88;;
44116;SDS011;29781;49.480;8.512;2022-08-21T03:54:14;12.88;;;5.18;;
44116;SDS011;29781;49.480;8.512;2022-08-21T03:56:39;6.60;;;4.40;;
44116;SDS011;29781;49.480;8.512;2022-08-21T03:59:05;9.13;;;4.63;;
44116;SDS011;29781;49.480;8.512;2022-08-21T04:01:32;7.57;;;4.40;;
44116;SDS011;29781;49.480;8.512;2022-08-21T04:03:57;7.47;;;4.28;;
44116;SDS011;29781;49.480;8.512;2022-08-21T04:06:23;9.95;;;4.20;;
44116;SDS011;29781;49.480;8.512;2022-08-21T04:08:51;7.55;;;4.43;;
44116;SDS011;29781;49.480;8.512;2022-08-21T04:11:17;11.93;;;5.20;;
44116;SDS011;29781;49.480;8.512;2022-08-21T04:13:43;12.40;;;5.30;;
44116;SDS011;29781;49.480;8.512;2022-08-21T04:16:09;9.27;;;4.93;;
44116;SDS011;29781;49.480;8.512;2022-08-21T04:18:34;10.20;;;4.75;;
44116;SDS011;29781;49.480;8.512;2022-08-21T04:21:00;8.32;;;5.53;;
44116;SDS011;29781;49.480;8.512;2022-08-21T04:23:28;8.60;;;5.10;;
44116;SDS011;29781;49.480;8.512;2022-08-21T04:25:54;10.50;;;5.93;;
44116;SDS011;29781;49.480;8.512;2022-08-21T04:28:21;9.13;;;5.43;;
44116;SDS011;29781;49.480;8.512;2022-08-21T04:30:49;6.95;;;5.45;;
44116;SDS011;29781;49.480;8.512;2022-08-21T04:33:15;6.50;;;5.30;;
44116;SDS011;29781;49.480;8.512;2022-08-21T04:35:41;7.22;;;5.40;;
44116;SDS011;29781;49.480;8.512;2022-08-21T04:38:07;8.20;;;5.30;;
44116;SDS011;29781;49.480;8.512;2022-08-21T04:40:33;16.08;;;5.38;;
44116;SDS011;29781;49.480;8.512;2022-08-21T04:43:01;7.53;;;5.13;;
44116;SDS011;29781;49.480;8.512;2022-08-21T04:45:30;6.13;;;3.58;;
44116;SDS011;29781;49.480;8.512;2022-08-21T04:48:02;7.18;;;4.60;;
44116;SDS011;29781;49.480;8.512;2022-08-21T04:50:36;7.10;;;4.57;;
44116;SDS011;29781;49.480;8.512;2022-08-21T04:53:07;6.28;;;4.20;;
44116;SDS011;29781;49.480;8.512;2022-08-21T04:55:38;5.72;;;5.07;;
44116;SDS011;29781;49.480;8.512;2022-08-21T04:58:05;10.13;;;5.28;;
44116;SDS011;29781;49.480;8.512;2022-08-21T05:00:33;9.15;;;5.32;;
44116;SDS011;29781;49.480;8.512;2022-08-21T05:02:59;7.88;;;4.93;;
44116;SDS011;29781;49.480;8.512;2022-08-21T05:05:27;9.02;;;6.05;;
44116;SDS011;29781;49.480;8.512;2022-08-21T05:07:54;6.82;;;5.30;;
44116;SDS011;29781;49.480;8.512;2022-08-21T05:10:21;10.38;;;6.30;;
44116;SDS011;29781;49.480;8.512;2022-08-21T05:12:47;8.95;;;5.72;;
44116;SDS011;29781;49.480;8.512;2022-08-21T05:15:13;9.63;;;5.78;;
44116;SDS011;29781;49.480;8.512;2022-08-21T05:17:39;8.32;;;5.68;;
44116;SDS011;29781;49.480;8.512;2022-08-21T05:20:08;11.77;;;6.00;;
44116;SDS011;29781;49.480;8.512;2022-08-21T05:22:35;9.63;;;6.43;;
44116;SDS011;29781;49.480;8.512;2022-08-21T05:25:01;9.90;;;6.57;;
44116;SDS011;29781;49.480;8.512;2022-08-21T05:27:27;9.18;;;6.03;;
44116;SDS011;29781;49.480;8.512;2022-08-21T05:29:54;11.73;;;6.80;;
44116;SDS011;29781;49.480;8.512;2022-08-21T05:32:21;9.32;;;6.25;;
44116;SDS011;29781;49.480;8.512;2022-08-21T05:34:46;8.60;;;6.20;;
44116;SDS011;29781;49.480;8.512;2022-08-21T05:37:12;14.82;;;5.75;;
44116;SDS011;29781;49.480;8.512;2022-08-21T05:39:38;10.38;;;5.72;;
44116;SDS011;29781;49.480;8.512;2022-08-21T05:42:03;9.98;;;5.80;;
44116;SDS011;29781;49.480;8.512;2022-08-21T05:44:29;9.38;;;5.32;;
44116;SDS011;29781;49.480;8.512;2022-08-21T05:46:55;14.55;;;5.88;;
44116;SDS011;29781;49.480;8.512;2022-08-21T05:49:30;25.55;;;6.80;;
44116;SDS011;29781;49.480;8.512;2022-08-21T05:51:56;25.70;;;6.55;;
44116;SDS011;29781;49.480;8.512;2022-08-21T05:54:22;18.73;;;6.35;;
44116;SDS011;29781;49.480;8.512;2022-08-21T05:56:47;17.10;;;6.07;;
44116;SDS011;29781;49.480;8.512;2022-08-21T05:59:13;19.30;;;6.43;;
44116;SDS011;29781;49.480;8.512;2022-08-21T06:01:39;14.70;;;5.63;;
44116;SDS011;29781;49.480;8.512;2022-08-21T06:04:05;13.18;;;5.30;;
44116;SDS011;29781;49.480;8.512;2022-08-21T06:06:32;14.13;;;5.88;;
44116;SDS011;29781;49.480;8.512;2022-08-21T06:08:58;14.50;;;5.95;;
44116;SDS011;29781;49.480;8.512;2022-08-21T06:11:24;18.20;;;6.20;;
44116;SDS011;29781;49.480;8.512;2022-08-21T06:13:50;15.10;;;5.43;;
44116;SDS011;29781;49.480;8.512;2022-08-21T06:16:16;12.45;;;5.65;;
44116;SDS011;29781;49.480;8.512;2022-08-21T06:18:42;9.73;;;5.47;;
44116;SDS011;29781;49.480;8.512;2022-08-21T06:21:09;12.25;;;5.38;;
44116;SDS011;29781;49.480;8.512;2022-08-21T06:23:36;19.00;;;5.80;;
44116;SDS011;29781;49.480;8.512;2022-08-21T06:26:03;18.58;;;5.63;;
44116;SDS011;29781;49.480;8.512;2022-08-21T06:28:30;14.93;;;5.80;;
44116;SDS011;29781;49.480;8.512;2022-08-21T06:30:56;11.57;;;5.40;;
44116;SDS011;29781;49.480;8.512;2022-08-21T06:33:22;12.65;;;5.63;;
44116;SDS011;29781;49.480;8.512;2022-08-21T06:35:48;11.50;;;5.40;;
44116;SDS011;29781;49.480;8.512;2022-08-21T06:38:14;13.68;;;5.50;;
44116;SDS011;29781;49.480;8.512;2022-08-21T06:40:40;13.32;;;5.43;;
44116;SDS011;29781;49.480;8.512;2022-08-21T06:43:16;9.40;;;5.40;;
44116;SDS011;29781;49.480;8.512;2022-08-21T06:45:42;10.13;;;5.15;;
44116;SDS011;29781;49.480;8.512;2022-08-21T06:48:08;11.93;;;5.53;;
44116;SDS011;29781;49.480;8.512;2022-08-21T06:50:34;16.25;;;5.60;;
44116;SDS011;29781;49.480;8.512;2022-08-21T06:53:05;12.15;;;4.55;;
44116;SDS011;29781;49.480;8.512;2022-08-21T06:55:32;15.00;;;4.85;;
44116;SDS011;29781;49.480;8.512;2022-08-21T06:57:59;9.50;;;4.88;;
44116;SDS011;29781;49.480;8.512;2022-08-21T07:00:25;13.07;;;4.32;;
44116;SDS011;29781;49.480;8.512;2022-08-21T07:02:51;8.32;;;4.50;;
44116;SDS011;29781;49.480;8.512;2022-08-21T07:05:16;10.05;;;4.47;;
44116;SDS011;29781;49.480;8.512;2022-08-21T07:07:42;11.68;;;4.53;;
44116;SDS011;29781;49.480;8.512;2022-08-21T07:10:08;13.88;;;4.80;;
44116;SDS011;29781;49.480;8.512;2022-08-21T07:12:34;13.20;;;4.40;;
44116;SDS011;29781;49.480;8.512;2022-08-21T07:15:00;7.57;;;4.00;;
44116;SDS011;29781;49.480;8.512;2022-08-21T07:17:26;9.82;;;3.95;;
44116;SDS011;29781;49.480;8.512;2022-08-21T07:19:51;7.70;;;3.92;;
44116;SDS011;29781;49.480;8.512;2022-08-21T07:22:18;13.23;;;4.30;;
44116;SDS011;29781;49.480;8.512;2022-08-21T07:24:45;7.40;;;3.55;;
44116;SDS011;29781;49.480;8.512;2022-08-21T07:27:11;10.05;;;4.03;;
44116;SDS011;29781;49.480;8.512;2022-08-21T07:29:37;12.43;;;4.20;;
44116;SDS011;29781;49.480;8.512;2022-08-21T07:32:03;9.90;;;4.45;;
44116;SDS011;29781;49.480;8.512;2022-08-21T07:34:29;7.90;;;3.83;;
44116;SDS011;29781;49.480;8.512;2022-08-21T07:36:56;11.50;;;4.43;;
44116;SDS011;29781;49.480;8.512;2022-08-21T07:39:22;9.82;;;4.70;;
44116;SDS011;29781;49.480;8.512;2022-08-21T07:41:48;10.90;;;4.43;;
44116;SDS011;29781;49.480;8.512;2022-08-21T07:44:13;9.88;;;4.30;;
44116;SDS011;29781;49.480;8.512;2022-08-21T07:46:39;13.10;;;4.22;;
44116;SDS011;29781;49.480;8.512;2022-08-21T07:49:04;9.60;;;4.03;;
44116;SDS011;29781;49.480;8.512;2022-08-21T07:51:30;7.72;;;3.85;;
44116;SDS011;29781;49.480;8.512;2022-08-21T07:53:58;10.82;;;4.53;;
44116;SDS011;29781;49.480;8.512;2022-08-21T07:56:24;12.10;;;5.07;;
44116;SDS011;29781;49.480;8.512;2022-08-21T07:58:50;8.88;;;4.28;;
44116;SDS011;29781;49.480;8.512;2022-08-21T08:01:16;9.35;;;3.95;;
44116;SDS011;29781;49.480;8.512;2022-08-21T08:03:43;14.07;;;4.45;;
44116;SDS011;29781;49.480;8.512;2022-08-21T08:06:10;7.47;;;4.25;;
44116;SDS011;29781;49.480;8.512;2022-08-21T08:08:38;15.00;;;4.80;;
44116;SDS011;29781;49.480;8.512;2022-08-21T08:11:05;8.70;;;4.53;;
44116;SDS011;29781;49.480;8.512;2022-08-21T08:13:31;12.18;;;4.70;;
44116;SDS011;29781;49.480;8.512;2022-08-21T08:16:02;10.65;;;3.95;;
44116;SDS011;29781;49.480;8.512;2022-08-21T08:18:28;8.93;;;4.43;;
44116;SDS011;29781;49.480;8.512;2022-08-21T08:20:54;12.15;;;5.00;;
44116;SDS011;29781;49.480;8.512;2022-08-21T08:23:19;9.63;;;4.72;;
44116;SDS011;29781;49.480;8.512;2022-08-21T08:25:45;8.10;;;4.70;;
44116;SDS011;29781;49.480;8.512;2022-08-21T08:28:11;9.25;;;4.70;;
44116;SDS011;29781;49.480;8.512;2022-08-21T08:30:37;11.27;;;4.50;;
44116;SDS011;29781;49.480;8.512;2022-08-21T08:33:02;12.43;;;4.57;;
44116;SDS011;29781;49.480;8.512;2022-08-21T08:35:28;7.75;;;4.43;;
44116;SDS011;29781;49.480;8.512;2022-08-21T08:37:54;7.88;;;4.70;;
44116;SDS011;29781;49.480;8.512;2022-08-21T08:40:37;7.30;;;4.75;;
44116;SDS011;29781;49.480;8.512;2022-08-21T08:43:09;11.77;;;5.20;;
44116;SDS011;29781;49.480;8.512;2022-08-21T08:45:37;10.75;;;5.22;;
44116;SDS011;29781;49.480;8.512;2022-08-21T08:48:06;9.63;;;4.55;;
44116;SDS011;29781;49.480;8.512;2022-08-21T08:50:40;8.50;;;4.43;;
44116;SDS011;29781;49.480;8.512;2022-08-21T08:53:28;9.45;;;5.85;;
44116;SDS011;29781;49.480;8.512;2022-08-21T08:55:57;10.75;;;5.88;;
44116;SDS011;29781;49.480;8.512;2022-08-21T08:58:29;11.75;;;5.60;;
44116;SDS011;29781;49.480;8.512;2022-08-21T09:01:01;8.05;;;4.85;;
44116;SDS011;29781;49.480;8.512;2022-08-21T09:03:34;12.30;;;6.15;;
44116;SDS011;29781;49.480;8.512;2022-08-21T09:09:00;8.75;;;5.10;;
44116;SDS011;29781;49.480;8.512;2022-08-21T09:28:35;8.43;;;5.63;;
44116;SDS011;29781;49.480;8.512;2022-08-21T09:31:19;12.15;;;5.47;;
44116;SDS011;29781;49.480;8.512;2022-08-21T09:34:00;10.90;;;4.80;;
44116;SDS011;29781;49.480;8.512;2022-08-21T09:36:31;9.73;;;4.80;;
44116;SDS011;29781;49.480;8.512;2022-08-21T09:39:01;12.98;;;5.07;;
44116;SDS011;29781;49.480;8.512;2022-08-21T09:41:29;12.02;;;5.82;;
44116;SDS011;29781;49.480;8.512;2022-08-21T09:43:56;9.07;;;5.10;;
44116;SDS011;29781;49.480;8.512;2022-08-21T09:46:23;10.48;;;5.03;;
44116;SDS011;29781;49.480;8.512;2022-08-21T09:48:52;14.18;;;4.93;;
44116;SDS011;29781;49.480;8.512;2022-08-21T09:51:24;15.23;;;4.30;;
44116;SDS011;29781;49.480;8.512;2022-08-21T10:01:55;7.88;;;3.90;;
44116;SDS011;29781;49.480;8.512;2022-08-21T10:04:26;7.90;;;4.57;;
44116;SDS011;29781;49.480;8.512;2022-08-21T10:07:04;9.73;;;4.10;;
44116;SDS011;29781;49.480;8.512;2022-08-21T10:09:40;9.95;;;4.05;;
44116;SDS011;29781;49.480;8.512;2022-08-21T10:12:12;10.50;;;4.00;;
44116;SDS011;29781;49.480;8.512;2022-08-21T10:19:56;13.35;;;4.40;;
44116;SDS011;29781;49.480;8.512;2022-08-21T10:28:00;11.57;;;3.65;;
44116;SDS011;29781;49.480;8.512;2022-08-21T10:30:56;10.70;;;3.70;;
44116;SDS011;29781;49.480;8.512;2022-08-21T10:33:48;7.13;;;3.40;;
44116;SDS011;29781;49.480;8.512;2022-08-21T10:39:57;11.98;;;5.10;;
44116;SDS011;29781;49.480;8.512;2022-08-21T10:47:55;8.27;;;3.93;;
44116;SDS011;29781;49.480;8.512;2022-08-21T10:50:37;8.52;;;4.10;;
44116;SDS011;29781;49.480;8.512;2022-08-21T10:56:17;6.40;;;3.75;;
44116;SDS011;29781;49.480;8.512;2022-08-21T10:59:07;13.02;;;4.45;;
44116;SDS011;29781;49.480;8.512;2022-08-21T11:06:53;9.63;;;4.45;;
44116;SDS011;29781;49.480;8.512;2022-08-21T11:09:26;5.60;;;3.22;;
44116;SDS011;29781;49.480;8.512;2022-08-21T11:17:11;7.28;;;3.78;;
44116;SDS011;29781;49.480;8.512;2022-08-21T11:22:14;9.20;;;3.47;;
44116;SDS011;29781;49.480;8.512;2022-08-21T11:25:00;7.28;;;3.70;;
44116;SDS011;29781;49.480;8.512;2022-08-21T11:27:49;6.22;;;3.10;;
44116;SDS011;29781;49.480;8.512;2022-08-21T11:30:39;5.68;;;2.50;;
44116;SDS011;29781;49.480;8.512;2022-08-21T11:36:19;5.35;;;2.85;;
44116;SDS011;29781;49.480;8.512;2022-08-21T11:39:06;6.15;;;3.33;;
44116;SDS011;29781;49.480;8.512;2022-08-21T11:42:16;8.77;;;3.42;;
44116;SDS011;29781;49.480;8.512;2022-08-21T11:45:18;5.90;;;3.65;;
44116;SDS011;29781;49.480;8.512;2022-08-21T11:50:40;6.30;;;3.20;;
44116;SDS011;29781;49.480;8.512;2022-08-21T11:55:45;7.78;;;3.05;;
44116;SDS011;29781;49.480;8.512;2022-08-21T11:58:14;6.72;;;3.35;;
44116;SDS011;29781;49.480;8.512;2022-08-21T12:00:49;7.18;;;3.25;;
44116;SDS011;29781;49.480;8.512;2022-08-21T12:06:01;9.38;;;3.55;;
44116;SDS011;29781;49.480;8.512;2022-08-21T12:08:33;7.65;;;3.28;;
44116;SDS011;29781;49.480;8.512;2022-08-21T12:13:39;7.80;;;3.45;;
44116;SDS011;29781;49.480;8.512;2022-08-21T12:16:27;6.82;;;3.08;;
44116;SDS011;29781;49.480;8.512;2022-08-21T12:19:04;6.57;;;3.28;;
44116;SDS011;29781;49.480;8.512;2022-08-21T12:21:32;7.90;;;3.17;;
44116;SDS011;29781;49.480;8.512;2022-08-21T12:26:47;8.18;;;3.42;;
44116;SDS011;29781;49.480;8.512;2022-08-21T12:29:16;5.40;;;2.97;;
44116;SDS011;29781;49.480;8.512;2022-08-21T12:32:01;4.85;;;2.80;;
44116;SDS011;29781;49.480;8.512;2022-08-21T12:35:02;5.63;;;3.28;;
44116;SDS011;29781;49.480;8.512;2022-08-21T12:40:03;6.85;;;3.25;;
44116;SDS011;29781;49.480;8.512;2022-08-21T12:42:42;3.75;;;2.70;;
44116;SDS011;29781;49.480;8.512;2022-08-21T12:45:23;6.18;;;3.05;;
44116;SDS011;29781;49.480;8.512;2022-08-21T12:47:56;6.32;;;3.13;;
44116;SDS011;29781;49.480;8.512;2022-08-21T12:50:32;8.05;;;3.75;;
44116;SDS011;29781;49.480;8.512;2022-08-21T12:53:04;6.93;;;3.33;;
44116;SDS011;29781;49.480;8.512;2022-08-21T12:55:34;5.85;;;3.03;;
44116;SDS011;29781;49.480;8.512;2022-08-21T12:58:05;7.10;;;3.60;;
44116;SDS011;29781;49.480;8.512;2022-08-21T13:00:31;7.60;;;3.50;;
44116;SDS011;29781;49.480;8.512;2022-08-21T13:02:56;7.55;;;2.83;;
44116;SDS011;29781;49.480;8.512;2022-08-21T13:05:35;10.30;;;3.65;;
44116;SDS011;29781;49.480;8.512;2022-08-21T13:08:06;4.93;;;2.97;;
44116;SDS011;29781;49.480;8.512;2022-08-21T13:10:35;7.07;;;3.20;;
44116;SDS011;29781;49.480;8.512;2022-08-21T13:13:03;5.35;;;2.97;;
44116;SDS011;29781;49.480;8.512;2022-08-21T13:15:32;4.50;;;3.00;;
44116;SDS011;29781;49.480;8.512;2022-08-21T13:18:01;5.78;;;2.95;;
44116;SDS011;29781;49.480;8.512;2022-08-21T13:20:29;3.95;;;2.67;;
44116;SDS011;29781;49.480;8.512;2022-08-21T13:22:57;6.25;;;2.92;;
44116;SDS011;29781;49.480;8.512;2022-08-21T13:25:26;6.53;;;2.85;;
44116;SDS011;29781;49.480;8.512;2022-08-21T13:28:10;5.35;;;3.10;;
44116;SDS011;29781;49.480;8.512;2022-08-21T13:30:42;7.32;;;3.25;;
44116;SDS011;29781;49.480;8.512;2022-08-21T13:33:13;7.35;;;3.20;;
44116;SDS011;29781;49.480;8.512;2022-08-21T13:38:16;6.25;;;3.15;;
44116;SDS011;29781;49.480;8.512;2022-08-21T13:40:51;6.00;;;2.92;;
44116;SDS011;29781;49.480;8.512;2022-08-21T13:43:22;7.07;;;3.20;;
44116;SDS011;29781;49.480;8.512;2022-08-21T13:45:54;4.50;;;2.92;;
44116;SDS011;29781;49.480;8.512;2022-08-21T13:48:21;7.00;;;3.22;;
44116;SDS011;29781;49.480;8.512;2022-08-21T13:50:50;6.07;;;3.13;;
44116;SDS011;29781;49.480;8.512;2022-08-21T13:53:20;7.43;;;3.33;;
44116;SDS011;29781;49.480;8.512;2022-08-21T13:55:48;3.95;;;3.10;;
44116;SDS011;29781;49.480;8.512;2022-08-21T13:58:23;5.65;;;3.00;;
44116;SDS011;29781;49.480;8.512;2022-08-21T14:00:54;5.35;;;3.30;;
44116;SDS011;29781;49.480;8.512;2022-08-21T14:05:55;7.35;;;3.20;;
44116;SDS011;29781;49.480;8.512;2022-08-21T14:08:27;8.00;;;2.92;;
44116;SDS011;29781;49.480;8.512;2022-08-21T14:10:59;5.53;;;2.78;;
44116;SDS011;29781;49.480;8.512;2022-08-21T14:16:00;4.75;;;2.97;;
44116;SDS011;29781;49.480;8.512;2022-08-21T14:18:27;5.88;;;2.97;;
44116;SDS011;29781;49.480;8.512;2022-08-21T14:21:07;7.57;;;3.35;;
44116;SDS011;29781;49.480;8.512;2022-08-21T14:23:34;7.53;;;3.15;;
44116;SDS011;29781;49.480;8.512;2022-08-21T14:26:00;6.50;;;3.40;;
44116;SDS011;29781;49.480;8.512;2022-08-21T14:28:29;4.05;;;2.78;;
44116;SDS011;29781;49.480;8.512;2022-08-21T14:33:40;8.25;;;3.08;;
44116;SDS011;29781;49.480;8.512;2022-08-21T14:36:05;4.70;;;2.90;;
44116;SDS011;29781;49.480;8.512;2022-08-21T14:38:31;4.65;;;2.55;;
44116;SDS011;29781;49.480;8.512;2022-08-21T14:41:03;5.65;;;3.13;;
44116;SDS011;29781;49.480;8.512;2022-08-21T14:43:33;8.40;;;3.17;;
44116;SDS011;29781;49.480;8.512;2022-08-21T14:45:58;9.73;;;3.33;;
44116;SDS011;29781;49.480;8.512;2022-08-21T14:48:26;8.02;;;3.38;;
44116;SDS011;29781;49.480;8.512;2022-08-21T14:50:51;7.35;;;2.90;;
44116;SDS011;29781;49.480;8.512;2022-08-21T14:53:17;4.40;;;2.83;;
44116;SDS011;29781;49.480;8.512;2022-08-21T14:55:43;6.03;;;2.70;;
44116;SDS011;29781;49.480;8.512;2022-08-21T14:58:27;6.40;;;3.03;;
44116;SDS011;29781;49.480;8.512;2022-08-21T15:00:53;6.55;;;2.95;;
44116;SDS011;29781;49.480;8.512;2022-08-21T15:03:20;6.68;;;3.25;;
44116;SDS011;29781;49.480;8.512;2022-08-21T15:05:47;4.03;;;2.70;;
44116;SDS011;29781;49.480;8.512;2022-08-21T15:08:13;9.45;;;2.97;;
44116;SDS011;29781;49.480;8.512;2022-08-21T15:10:39;7.10;;;2.92;;
44116;SDS011;29781;49.480;8.512;2022-08-21T15:13:04;5.78;;;2.90;;
44116;SDS011;29781;49.480;8.512;2022-08-21T15:15:32;5.85;;;3.03;;
44116;SDS011;29781;49.480;8.512;2022-08-21T15:18:03;5.93;;;2.83;;
44116;SDS011;29781;49.480;8.512;2022-08-21T15:20:28;7.50;;;3.45;;
44116;SDS011;29781;49.480;8.512;2022-08-21T15:22:54;5.70;;;3.13;;
44116;SDS011;29781;49.480;8.512;2022-08-21T15:25:20;6.30;;;2.90;;
44116;SDS011;29781;49.480;8.512;2022-08-21T15:27:45;5.70;;;2.92;;
44116;SDS011;29781;49.480;8.512;2022-08-21T15:30:11;5.97;;;2.80;;
44116;SDS011;29781;49.480;8.512;2022-08-21T15:32:37;7.57;;;2.97;;
44116;SDS011;29781;49.480;8.512;2022-08-21T15:35:04;4.13;;;2.80;;
44116;SDS011;29781;49.480;8.512;2022-08-21T15:37:30;5.93;;;2.92;;
44116;SDS011;29781;49.480;8.512;2022-08-21T15:39:56;10.10;;;2.75;;
44116;SDS011;29781;49.480;8.512;2022-08-21T15:42:22;4.47;;;3.15;;
44116;SDS011;29781;49.480;8.512;2022-08-21T15:44:48;5.45;;;2.65;;
44116;SDS011;29781;49.480;8.512;2022-08-21T15:47:15;6.20;;;3.20;;
44116;SDS011;29781;49.480;8.512;2022-08-21T15:49:44;5.78;;;3.38;;
44116;SDS011;29781;49.480;8.512;2022-08-21T15:52:20;7.10;;;3.03;;
44116;SDS011;29781;49.480;8.512;2022-08-21T15:54:46;7.97;;;3.00;;
44116;SDS011;29781;49.480;8.512;2022-08-21T15:57:13;7.75;;;2.78;;
44116;SDS011;29781;49.480;8.512;2022-08-21T15:59:45;8.00;;;3.33;;
44116;SDS011;29781;49.480;8.512;2022-08-21T16:02:37;5.47;;;2.95;;
44116;SDS011;29781;49.480;8.512;2022-08-21T16:05:05;4.97;;;2.70;;
44116;SDS011;29781;49.480;8.512;2022-08-21T16:07:32;8.73;;;6.30;;
44116;SDS011;29781;49.480;8.512;2022-08-21T16:09:58;5.93;;;3.10;;
44116;SDS011;29781;49.480;8.512;2022-08-21T16:12:25;7.20;;;3.60;;
44116;SDS011;29781;49.480;8.512;2022-08-21T16:14:52;6.55;;;2.70;;
44116;SDS011;29781;49.480;8.512;2022-08-21T16:17:20;6.20;;;3.22;;
44116;SDS011;29781;49.480;8.512;2022-08-21T16:19:49;5.72;;;2.90;;
44116;SDS011;29781;49.480;8.512;2022-08-21T16:22:15;4.82;;;2.88;;
44116;SDS011;29781;49.480;8.512;2022-08-21T16:24:41;4.88;;;2.90;;
44116;SDS011;29781;49.480;8.512;2022-08-21T16:27:06;3.88;;;2.65;;